KMMU/MMU METAR and TAF weather

Enter ICAO airport designator
Station Type Date Time Source
KMMU METAR 2022/01/25 04:55 UTC NOAA

KMMU 250455Z AUTO 00000KT 10SM OVC060 M01/M05 A2984 RMK AO2


Station Type Date Time Source
KMMU Decoded METAR 2022/01/25 04:55 UTC NOAA

Morristown Municipal, NJ, United States (KMMU) 40-48N 074-25W
Jan 24, 2022 - 11:55 PM EST / 2022.01.25 0455 UTC
Wind: Calm:0
Visibility: 10 mile(s):0
Sky conditions: overcast
Temperature: 30 F (-1 C)
Dew Point: 23 F (-5 C)
Relative Humidity: 74%
Pressure (altimeter): 29.84 in. Hg (1010 hPa)
ob: KMMU 250455Z AUTO 00000KT 10SM OVC060 M01/M05 A2984 RMK AO2
cycle: 5

Station Type Date Time Source
KMMU TAF UTC NOAA

Error!

Example: see airport list